sensor_id;sensor_type;location;lat;lon;timestamp;pressure;altitude;pressure_sealevel;temperature;humidity
75891;BME280;64571;47.512;19.054;2023-11-21T00:01:03;100003.25;;;8.39;85.83
75891;BME280;64571;47.512;19.054;2023-11-21T00:04:06;99986.19;;;8.26;85.73
75891;BME280;64571;47.512;19.054;2023-11-21T00:07:09;99991.72;;;8.26;85.58
75891;BME280;64571;47.512;19.054;2023-11-21T00:10:12;100001.03;;;8.35;85.46
75891;BME280;64571;47.512;19.054;2023-11-21T00:13:17;100006.28;;;8.37;85.27
75891;BME280;64571;47.512;19.054;2023-11-21T00:16:20;100002.69;;;8.36;85.52
75891;BME280;64571;47.512;19.054;2023-11-21T00:19:24;99985.06;;;8.27;85.48
75891;BME280;64571;47.512;19.054;2023-11-21T00:22:27;99977.34;;;8.24;85.62
75891;BME280;64571;47.512;19.054;2023-11-21T00:25:29;99988.13;;;8.26;85.78
75891;BME280;64571;47.512;19.054;2023-11-21T00:28:33;99999.13;;;8.31;85.91
75891;BME280;64571;47.512;19.054;2023-11-21T00:31:36;100001.09;;;8.30;85.97
75891;BME280;64571;47.512;19.054;2023-11-21T00:34:40;100006.06;;;8.28;86.19
75891;BME280;64571;47.512;19.054;2023-11-21T00:37:42;99992.66;;;8.17;86.20
75891;BME280;64571;47.512;19.054;2023-11-21T00:40:46;100010.56;;;8.24;86.23
75891;BME280;64571;47.512;19.054;2023-11-21T00:43:48;100023.28;;;8.25;86.30
75891;BME280;64571;47.512;19.054;2023-11-21T00:46:51;100028.81;;;8.25;85.97
75891;BME280;64571;47.512;19.054;2023-11-21T00:49:54;100006.78;;;8.15;86.04
75891;BME280;64571;47.512;19.054;2023-11-21T00:52:56;100010.06;;;8.17;85.83
75891;BME280;64571;47.512;19.054;2023-11-21T00:55:59;100027.41;;;8.28;85.76
75891;BME280;64571;47.512;19.054;2023-11-21T00:59:02;100031.03;;;8.23;86.25
75891;BME280;64571;47.512;19.054;2023-11-21T01:02:05;100038.28;;;8.19;86.47
75891;BME280;64571;47.512;19.054;2023-11-21T01:05:08;100034.69;;;8.19;86.52
75891;BME280;64571;47.512;19.054;2023-11-21T01:08:11;100034.16;;;8.17;86.95
75891;BME280;64571;47.512;19.054;2023-11-21T01:11:13;100007.69;;;8.05;86.65
75891;BME280;64571;47.512;19.054;2023-11-21T01:14:16;100021.16;;;8.17;86.17
75891;BME280;64571;47.512;19.054;2023-11-21T01:17:20;100016.63;;;8.26;85.84
75891;BME280;64571;47.512;19.054;2023-11-21T01:20:26;100005.03;;;8.24;86.06
75891;BME280;64571;47.512;19.054;2023-11-21T01:23:30;100005.91;;;8.20;86.14
75891;BME280;64571;47.512;19.054;2023-11-21T01:26:33;99990.00;;;8.06;86.13
75891;BME280;64571;47.512;19.054;2023-11-21T01:29:36;99994.66;;;8.06;86.70
75891;BME280;64571;47.512;19.054;2023-11-21T01:32:39;99999.59;;;8.14;86.74
75891;BME280;64571;47.512;19.054;2023-11-21T01:35:42;99992.47;;;8.08;86.67
75891;BME280;64571;47.512;19.054;2023-11-21T01:38:45;99998.75;;;8.13;87.10
75891;BME280;64571;47.512;19.054;2023-11-21T01:41:48;99996.28;;;8.12;87.29
75891;BME280;64571;47.512;19.054;2023-11-21T01:44:50;99989.94;;;8.11;87.19
75891;BME280;64571;47.512;19.054;2023-11-21T01:47:53;99992.16;;;8.09;86.90
75891;BME280;64571;47.512;19.054;2023-11-21T01:50:58;99997.44;;;8.06;86.96
75891;BME280;64571;47.512;19.054;2023-11-21T01:54:02;99991.97;;;8.01;86.87
75891;BME280;64571;47.512;19.054;2023-11-21T01:57:19;99987.25;;;8.01;86.83
75891;BME280;64571;47.512;19.054;2023-11-21T02:00:23;99978.72;;;7.98;86.87
75891;BME280;64571;47.512;19.054;2023-11-21T02:03:26;99968.53;;;7.93;86.86
75891;BME280;64571;47.512;19.054;2023-11-21T02:06:29;99976.22;;;7.96;86.59
75891;BME280;64571;47.512;19.054;2023-11-21T02:09:33;99961.69;;;7.85;86.46
75891;BME280;64571;47.512;19.054;2023-11-21T02:12:36;99975.41;;;7.96;86.60
75891;BME280;64571;47.512;19.054;2023-11-21T02:15:41;99964.41;;;7.91;86.67
75891;BME280;64571;47.512;19.054;2023-11-21T02:18:43;99944.25;;;7.85;86.47
75891;BME280;64571;47.512;19.054;2023-11-21T02:21:46;99945.91;;;7.86;86.39
75891;BME280;64571;47.512;19.054;2023-11-21T02:24:50;99949.25;;;7.83;86.57
75891;BME280;64571;47.512;19.054;2023-11-21T02:27:58;99952.75;;;7.94;86.35
75891;BME280;64571;47.512;19.054;2023-11-21T02:31:00;99939.59;;;7.80;86.48
75891;BME280;64571;47.512;19.054;2023-11-21T02:34:05;99943.44;;;7.84;86.30
75891;BME280;64571;47.512;19.054;2023-11-21T02:37:08;99949.69;;;7.95;86.38
75891;BME280;64571;47.512;19.054;2023-11-21T02:40:10;99935.13;;;7.84;86.30
75891;BME280;64571;47.512;19.054;2023-11-21T02:43:14;99947.47;;;7.97;86.21
75891;BME280;64571;47.512;19.054;2023-11-21T02:46:17;99935.38;;;7.88;86.12
75891;BME280;64571;47.512;19.054;2023-11-21T02:49:19;99951.31;;;7.96;86.27
75891;BME280;64571;47.512;19.054;2023-11-21T02:52:23;99957.41;;;7.98;86.52
75891;BME280;64571;47.512;19.054;2023-11-21T02:55:26;99958.81;;;7.96;86.87
75891;BME280;64571;47.512;19.054;2023-11-21T02:58:29;99937.66;;;7.81;87.20
75891;BME280;64571;47.512;19.054;2023-11-21T03:01:32;99957.97;;;7.95;87.08
75891;BME280;64571;47.512;19.054;2023-11-21T03:04:35;99957.16;;;7.95;87.12
75891;BME280;64571;47.512;19.054;2023-11-21T03:07:38;99942.63;;;7.84;87.36
75891;BME280;64571;47.512;19.054;2023-11-21T03:10:41;99927.41;;;7.81;87.45
75891;BME280;64571;47.512;19.054;2023-11-21T03:13:43;99926.28;;;7.82;87.56
75891;BME280;64571;47.512;19.054;2023-11-21T03:16:48;99930.31;;;7.95;87.70
75891;BME280;64571;47.512;19.054;2023-11-21T03:19:51;99933.37;;;7.94;87.95
75891;BME280;64571;47.512;19.054;2023-11-21T03:22:54;99930.06;;;7.92;88.28
75891;BME280;64571;47.512;19.054;2023-11-21T03:25:57;99924.47;;;7.97;88.30
75891;BME280;64571;47.512;19.054;2023-11-21T03:29:00;99918.66;;;7.98;88.42
75891;BME280;64571;47.512;19.054;2023-11-21T03:32:03;99916.72;;;7.99;88.69
75891;BME280;64571;47.512;19.054;2023-11-21T03:35:07;99895.53;;;7.89;88.78
75891;BME280;64571;47.512;19.054;2023-11-21T03:38:09;99911.53;;;7.92;89.88
75891;BME280;64571;47.512;19.054;2023-11-21T03:41:12;99907.94;;;7.92;90.01
75891;BME280;64571;47.512;19.054;2023-11-21T03:44:14;99891.50;;;7.76;89.85
75891;BME280;64571;47.512;19.054;2023-11-21T03:47:17;99880.44;;;7.76;89.80
75891;BME280;64571;47.512;19.054;2023-11-21T03:50:21;99890.25;;;7.87;90.07
75891;BME280;64571;47.512;19.054;2023-11-21T03:53:24;99870.97;;;7.82;90.22
75891;BME280;64571;47.512;19.054;2023-11-21T03:56:26;99893.59;;;7.90;89.47
75891;BME280;64571;47.512;19.054;2023-11-21T03:59:29;99901.56;;;7.91;89.35
75891;BME280;64571;47.512;19.054;2023-11-21T04:02:31;99890.06;;;7.79;89.37
75891;BME280;64571;47.512;19.054;2023-11-21T04:05:34;99892.63;;;7.75;88.74
75891;BME280;64571;47.512;19.054;2023-11-21T04:08:37;99911.56;;;7.87;88.10
75891;BME280;64571;47.512;19.054;2023-11-21T04:11:39;99900.28;;;7.83;87.52
75891;BME280;64571;47.512;19.054;2023-11-21T04:14:42;99907.34;;;7.95;86.82
75891;BME280;64571;47.512;19.054;2023-11-21T04:17:44;99912.88;;;7.95;86.61
75891;BME280;64571;47.512;19.054;2023-11-21T04:20:50;99910.50;;;7.83;86.38
75891;BME280;64571;47.512;19.054;2023-11-21T04:23:53;99933.66;;;7.92;86.21
75891;BME280;64571;47.512;19.054;2023-11-21T04:26:55;99940.56;;;7.95;86.09
75891;BME280;64571;47.512;19.054;2023-11-21T04:29:58;99945.78;;;7.96;86.22
75891;BME280;64571;47.512;19.054;2023-11-21T04:33:01;99934.44;;;7.98;86.15
75891;BME280;64571;47.512;19.054;2023-11-21T04:36:05;99924.72;;;8.00;86.09
75891;BME280;64571;47.512;19.054;2023-11-21T04:39:08;99933.75;;;8.11;85.75
75891;BME280;64571;47.512;19.054;2023-11-21T04:42:11;99928.75;;;8.13;85.52
75891;BME280;64571;47.512;19.054;2023-11-21T04:45:14;99938.09;;;8.17;85.23
75891;BME280;64571;47.512;19.054;2023-11-21T04:48:18;99936.16;;;8.18;84.84
75891;BME280;64571;47.512;19.054;2023-11-21T04:51:20;99942.25;;;8.20;84.77
75891;BME280;64571;47.512;19.054;2023-11-21T04:54:23;99934.09;;;8.04;84.84
75891;BME280;64571;47.512;19.054;2023-11-21T04:57:29;99947.63;;;8.06;85.07
75891;BME280;64571;47.512;19.054;2023-11-21T05:00:32;99960.63;;;8.05;85.28
75891;BME280;64571;47.512;19.054;2023-11-21T05:03:35;99945.56;;;7.93;85.16
75891;BME280;64571;47.512;19.054;2023-11-21T05:06:38;99973.38;;;8.06;85.18
75891;BME280;64571;47.512;19.054;2023-11-21T05:09:44;99949.34;;;8.02;85.18
75891;BME280;64571;47.512;19.054;2023-11-21T05:12:48;99953.16;;;8.06;84.96
75891;BME280;64571;47.512;19.054;2023-11-21T05:15:53;99971.84;;;8.19;85.15
75891;BME280;64571;47.512;19.054;2023-11-21T05:18:55;99959.19;;;8.13;84.88
75891;BME280;64571;47.512;19.054;2023-11-21T05:22:03;99971.56;;;8.21;84.72
75891;BME280;64571;47.512;19.054;2023-11-21T05:25:06;99966.75;;;8.31;84.70
75891;BME280;64571;47.512;19.054;2023-11-21T05:28:12;99959.47;;;8.41;84.66
75891;BME280;64571;47.512;19.054;2023-11-21T05:31:14;99933.50;;;8.31;84.34
75891;BME280;64571;47.512;19.054;2023-11-21T05:34:18;99947.81;;;8.44;83.85
75891;BME280;64571;47.512;19.054;2023-11-21T05:37:21;99941.06;;;8.50;84.25
75891;BME280;64571;47.512;19.054;2023-11-21T05:40:25;99957.13;;;8.53;83.82
75891;BME280;64571;47.512;19.054;2023-11-21T05:43:32;99960.06;;;8.61;83.36
75891;BME280;64571;47.512;19.054;2023-11-21T05:46:37;99951.44;;;8.63;82.66
75891;BME280;64571;47.512;19.054;2023-11-21T05:49:40;99936.59;;;8.54;82.20
75891;BME280;64571;47.512;19.054;2023-11-21T05:52:44;99934.13;;;8.52;81.76
75891;BME280;64571;47.512;19.054;2023-11-21T05:55:47;99955.34;;;8.62;81.80
75891;BME280;64571;47.512;19.054;2023-11-21T05:58:50;99967.56;;;8.61;81.94
75891;BME280;64571;47.512;19.054;2023-11-21T06:01:53;99952.63;;;8.57;82.02
75891;BME280;64571;47.512;19.054;2023-11-21T06:04:56;99961.53;;;8.54;81.98
75891;BME280;64571;47.512;19.054;2023-11-21T06:07:59;99984.16;;;8.61;82.29
75891;BME280;64571;47.512;19.054;2023-11-21T06:11:03;99969.91;;;8.49;82.52
75891;BME280;64571;47.512;19.054;2023-11-21T06:14:06;99998.28;;;8.59;82.90
75891;BME280;64571;47.512;19.054;2023-11-21T06:17:10;100004.38;;;8.61;82.94
75891;BME280;64571;47.512;19.054;2023-11-21T06:20:13;100001.59;;;8.61;82.88
75891;BME280;64571;47.512;19.054;2023-11-21T06:23:17;100012.03;;;8.70;82.67
75891;BME280;64571;47.512;19.054;2023-11-21T06:26:19;100002.91;;;8.69;82.28
75891;BME280;64571;47.512;19.054;2023-11-21T06:29:23;100016.75;;;8.69;82.26
75891;BME280;64571;47.512;19.054;2023-11-21T06:32:25;100017.78;;;8.73;82.76
75891;BME280;64571;47.512;19.054;2023-11-21T06:35:28;100042.69;;;8.78;82.32
75891;BME280;64571;47.512;19.054;2023-11-21T06:38:32;100046.56;;;8.77;82.48
75891;BME280;64571;47.512;19.054;2023-11-21T06:41:35;100028.38;;;8.71;82.88
75891;BME280;64571;47.512;19.054;2023-11-21T06:44:41;100052.66;;;8.79;82.59
75891;BME280;64571;47.512;19.054;2023-11-21T06:47:44;100047.37;;;8.78;82.73
75891;BME280;64571;47.512;19.054;2023-11-21T06:50:47;100033.16;;;8.66;82.54
75891;BME280;64571;47.512;19.054;2023-11-21T06:53:49;100050.16;;;8.78;82.65
75891;BME280;64571;47.512;19.054;2023-11-21T06:56:52;100060.16;;;8.79;83.10
75891;BME280;64571;47.512;19.054;2023-11-21T06:59:55;100053.28;;;8.71;83.38
75891;BME280;64571;47.512;19.054;2023-11-21T07:02:59;100050.22;;;8.73;83.63
75891;BME280;64571;47.512;19.054;2023-11-21T07:06:03;100052.16;;;8.72;83.65
75891;BME280;64571;47.512;19.054;2023-11-21T07:09:06;100053.94;;;8.63;83.86
75891;BME280;64571;47.512;19.054;2023-11-21T07:12:10;100060.06;;;8.60;84.19
75891;BME280;64571;47.512;19.054;2023-11-21T07:15:13;100057.03;;;8.27;85.10
75891;BME280;64571;47.512;19.054;2023-11-21T07:18:16;100071.94;;;8.31;85.36
75891;BME280;64571;47.512;19.054;2023-11-21T07:21:18;100066.25;;;8.18;85.44
75891;BME280;64571;47.512;19.054;2023-11-21T07:24:22;100092.53;;;8.20;85.60
75891;BME280;64571;47.512;19.054;2023-11-21T07:27:28;100072.66;;;8.13;85.70
75891;BME280;64571;47.512;19.054;2023-11-21T07:30:31;100087.78;;;8.26;85.09
75891;BME280;64571;47.512;19.054;2023-11-21T07:33:34;100082.44;;;8.34;84.84
75891;BME280;64571;47.512;19.054;2023-11-21T07:36:37;100052.03;;;8.29;84.29
75891;BME280;64571;47.512;19.054;2023-11-21T07:39:39;100063.00;;;8.45;83.91
75891;BME280;64571;47.512;19.054;2023-11-21T07:42:44;100066.44;;;8.60;83.11
75891;BME280;64571;47.512;19.054;2023-11-21T07:45:47;100070.16;;;8.75;81.60
75891;BME280;64571;47.512;19.054;2023-11-21T07:48:49;100074.44;;;8.86;81.61
75891;BME280;64571;47.512;19.054;2023-11-21T07:51:52;100068.09;;;8.85;81.71
75891;BME280;64571;47.512;19.054;2023-11-21T07:54:55;100076.88;;;8.93;81.56
75891;BME280;64571;47.512;19.054;2023-11-21T07:57:58;100066.38;;;8.90;81.34
75891;BME280;64571;47.512;19.054;2023-11-21T08:01:02;100059.44;;;8.92;80.43
75891;BME280;64571;47.512;19.054;2023-11-21T08:04:05;100078.34;;;9.09;80.76
75891;BME280;64571;47.512;19.054;2023-11-21T08:07:09;100074.47;;;9.10;80.55
75891;BME280;64571;47.512;19.054;2023-11-21T08:10:12;100076.84;;;9.17;79.94
75891;BME280;64571;47.512;19.054;2023-11-21T08:13:14;100074.84;;;9.22;79.48
75891;BME280;64571;47.512;19.054;2023-11-21T08:16:19;100055.50;;;9.17;79.30
75891;BME280;64571;47.512;19.054;2023-11-21T08:19:22;100070.00;;;9.33;79.25
75891;BME280;64571;47.512;19.054;2023-11-21T08:22:27;100081.59;;;9.35;78.74
75891;BME280;64571;47.512;19.054;2023-11-21T08:25:29;100064.91;;;9.40;79.09
75891;BME280;64571;47.512;19.054;2023-11-21T08:28:32;100060.16;;;9.41;78.35
75891;BME280;64571;47.512;19.054;2023-11-21T08:31:35;100060.47;;;9.39;78.29
75891;BME280;64571;47.512;19.054;2023-11-21T08:34:38;100044.22;;;9.32;77.87
75891;BME280;64571;47.512;19.054;2023-11-21T08:37:42;100064.47;;;9.52;77.89
75891;BME280;64571;47.512;19.054;2023-11-21T08:40:45;100068.88;;;9.53;77.92
75891;BME280;64571;47.512;19.054;2023-11-21T08:43:49;100059.34;;;9.59;77.84
75891;BME280;64571;47.512;19.054;2023-11-21T08:46:52;100040.09;;;9.49;77.78
75891;BME280;64571;47.512;19.054;2023-11-21T08:49:55;100054.34;;;9.61;77.75
75891;BME280;64571;47.512;19.054;2023-11-21T08:52:58;100032.91;;;9.48;76.95
75891;BME280;64571;47.512;19.054;2023-11-21T08:56:00;100049.25;;;9.68;77.47
75891;BME280;64571;47.512;19.054;2023-11-21T08:59:03;100048.88;;;9.75;77.41
75891;BME280;64571;47.512;19.054;2023-11-21T09:02:06;100051.88;;;9.78;77.16
75891;BME280;64571;47.512;19.054;2023-11-21T09:05:11;100059.97;;;9.75;76.68
75891;BME280;64571;47.512;19.054;2023-11-21T09:08:14;100064.69;;;9.74;77.01
75891;BME280;64571;47.512;19.054;2023-11-21T09:11:17;100065.91;;;9.68;77.01
75891;BME280;64571;47.512;19.054;2023-11-21T09:14:19;100063.41;;;9.67;77.22
75891;BME280;64571;47.512;19.054;2023-11-21T09:17:22;100058.09;;;9.70;77.17
75891;BME280;64571;47.512;19.054;2023-11-21T09:20:25;100038.00;;;9.59;77.04
75891;BME280;64571;47.512;19.054;2023-11-21T09:23:27;100053.59;;;9.74;77.15
75891;BME280;64571;47.512;19.054;2023-11-21T09:26:30;100049.09;;;9.78;77.19
75891;BME280;64571;47.512;19.054;2023-11-21T09:29:33;100048.28;;;9.78;76.91
75891;BME280;64571;47.512;19.054;2023-11-21T09:32:36;100035.72;;;9.80;77.00
75891;BME280;64571;47.512;19.054;2023-11-21T09:35:39;100020.72;;;9.81;76.83
75891;BME280;64571;47.512;19.054;2023-11-21T09:38:42;100033.75;;;10.00;76.59
75891;BME280;64571;47.512;19.054;2023-11-21T09:41:52;100007.72;;;9.96;76.52
75891;BME280;64571;47.512;19.054;2023-11-21T09:45:05;100018.78;;;10.14;76.72
75891;BME280;64571;47.512;19.054;2023-11-21T09:48:11;100013.00;;;10.11;76.32
75891;BME280;64571;47.512;19.054;2023-11-21T09:51:15;99999.22;;;10.06;76.44
75891;BME280;64571;47.512;19.054;2023-11-21T09:54:18;100008.41;;;10.20;76.30
75891;BME280;64571;47.512;19.054;2023-11-21T09:57:24;100016.94;;;10.24;76.27
75891;BME280;64571;47.512;19.054;2023-11-21T10:00:27;100014.72;;;10.26;76.47
75891;BME280;64571;47.512;19.054;2023-11-21T10:03:31;100025.72;;;10.31;76.64
75891;BME280;64571;47.512;19.054;2023-11-21T10:06:34;100015.75;;;10.30;76.82
75891;BME280;64571;47.512;19.054;2023-11-21T10:09:37;99989.56;;;10.17;76.66
75891;BME280;64571;47.512;19.054;2023-11-21T10:12:41;99988.47;;;10.18;77.04
75891;BME280;64571;47.512;19.054;2023-11-21T10:15:51;100007.19;;;10.26;75.97
75891;BME280;64571;47.512;19.054;2023-11-21T10:18:54;100001.97;;;10.25;75.79
75891;BME280;64571;47.512;19.054;2023-11-21T10:22:13;99997.06;;;10.17;75.79
75891;BME280;64571;47.512;19.054;2023-11-21T10:25:17;100004.41;;;10.26;76.10
75891;BME280;64571;47.512;19.054;2023-11-21T10:28:22;99996.69;;;10.23;77.46
75891;BME280;64571;47.512;19.054;2023-11-21T10:31:29;99976.41;;;10.09;77.96
75891;BME280;64571;47.512;19.054;2023-11-21T10:34:33;99974.44;;;10.09;78.16
75891;BME280;64571;47.512;19.054;2023-11-21T10:37:37;99993.37;;;10.21;78.31
75891;BME280;64571;47.512;19.054;2023-11-21T10:40:44;99992.22;;;10.08;77.92
75891;BME280;64571;47.512;19.054;2023-11-21T10:43:47;99982.38;;;10.16;78.03
75891;BME280;64571;47.512;19.054;2023-11-21T10:46:51;99971.34;;;10.11;77.28
75891;BME280;64571;47.512;19.054;2023-11-21T10:49:56;99993.31;;;10.26;77.32
75891;BME280;64571;47.512;19.054;2023-11-21T10:53:00;99999.81;;;10.35;77.22
75891;BME280;64571;47.512;19.054;2023-11-21T10:56:06;99997.66;;;10.32;77.26
75891;BME280;64571;47.512;19.054;2023-11-21T10:59:10;99983.88;;;10.27;77.91
75891;BME280;64571;47.512;19.054;2023-11-21T11:02:23;99995.00;;;10.41;78.15
75891;BME280;64571;47.512;19.054;2023-11-21T11:05:28;99996.03;;;10.45;78.11
75891;BME280;64571;47.512;19.054;2023-11-21T11:08:31;99992.94;;;10.47;78.14
75891;BME280;64571;47.512;19.054;2023-11-21T11:11:34;99977.19;;;10.28;78.02
75891;BME280;64571;47.512;19.054;2023-11-21T11:14:41;99985.91;;;10.35;78.23
75891;BME280;64571;47.512;19.054;2023-11-21T11:17:46;99985.09;;;10.35;78.14
75891;BME280;64571;47.512;19.054;2023-11-21T11:20:49;99980.19;;;10.32;77.95
75891;BME280;64571;47.512;19.054;2023-11-21T11:24:05;99960.50;;;10.28;77.73
75891;BME280;64571;47.512;19.054;2023-11-21T11:27:34;99980.19;;;10.46;77.52
75891;BME280;64571;47.512;19.054;2023-11-21T11:30:48;99985.31;;;10.38;77.17
75891;BME280;64571;47.512;19.054;2023-11-21T11:34:08;99974.72;;;10.41;77.24
75891;BME280;64571;47.512;19.054;2023-11-21T11:37:16;99957.38;;;10.16;77.52
75891;BME280;64571;47.512;19.054;2023-11-21T11:40:25;99972.13;;;10.30;77.41
75891;BME280;64571;47.512;19.054;2023-11-21T11:43:28;99971.53;;;10.33;77.23
75891;BME280;64571;47.512;19.054;2023-11-21T11:46:44;99969.19;;;10.41;77.08
75891;BME280;64571;47.512;19.054;2023-11-21T11:49:57;99960.00;;;10.40;77.05
75891;BME280;64571;47.512;19.054;2023-11-21T11:53:14;99962.37;;;10.47;76.91
75891;BME280;64571;47.512;19.054;2023-11-21T11:56:28;99956.59;;;10.43;76.62
75891;BME280;64571;47.512;19.054;2023-11-21T12:03:23;99953.84;;;10.57;76.77
75891;BME280;64571;47.512;19.054;2023-11-21T12:06:35;99953.63;;;10.53;76.43
75891;BME280;64571;47.512;19.054;2023-11-21T12:09:38;99940.16;;;10.60;76.54
75891;BME280;64571;47.512;19.054;2023-11-21T12:12:50;99932.84;;;10.51;76.51
75891;BME280;64571;47.512;19.054;2023-11-21T12:15:54;99955.47;;;10.58;76.28
75891;BME280;64571;47.512;19.054;2023-11-21T12:18:57;99932.97;;;10.46;76.30
75891;BME280;64571;47.512;19.054;2023-11-21T12:22:00;99949.41;;;10.56;76.22
75891;BME280;64571;47.512;19.054;2023-11-21T12:25:03;99948.47;;;10.60;76.17
75891;BME280;64571;47.512;19.054;2023-11-21T12:28:07;99948.06;;;10.67;75.93
75891;BME280;64571;47.512;19.054;2023-11-21T12:31:10;99930.47;;;10.58;75.78
75891;BME280;64571;47.512;19.054;2023-11-21T12:34:23;99941.06;;;10.70;75.99
75891;BME280;64571;47.512;19.054;2023-11-21T12:37:26;99935.50;;;10.70;76.05
75891;BME280;64571;47.512;19.054;2023-11-21T12:40:29;99922.97;;;10.72;76.57
75891;BME280;64571;47.512;19.054;2023-11-21T12:43:31;99930.38;;;10.77;76.65
75891;BME280;64571;47.512;19.054;2023-11-21T12:46:36;99912.25;;;10.65;76.06
75891;BME280;64571;47.512;19.054;2023-11-21T12:49:38;99930.53;;;10.80;76.19
75891;BME280;64571;47.512;19.054;2023-11-21T12:52:42;99913.97;;;10.75;76.25
75891;BME280;64571;47.512;19.054;2023-11-21T12:55:49;99921.50;;;10.75;75.88
75891;BME280;64571;47.512;19.054;2023-11-21T12:58:53;99927.69;;;10.85;75.94
75891;BME280;64571;47.512;19.054;2023-11-21T13:01:56;99902.84;;;10.75;75.83
75891;BME280;64571;47.512;19.054;2023-11-21T13:05:01;99928.16;;;10.87;76.25
75891;BME280;64571;47.512;19.054;2023-11-21T13:08:09;99929.53;;;10.90;76.20
75891;BME280;64571;47.512;19.054;2023-11-21T13:11:15;99925.72;;;10.86;76.27
75891;BME280;64571;47.512;19.054;2023-11-21T13:14:17;99935.69;;;10.87;76.66
75891;BME280;64571;47.512;19.054;2023-11-21T13:17:20;99930.34;;;10.90;76.54
75891;BME280;64571;47.512;19.054;2023-11-21T13:20:26;99938.16;;;10.88;76.19
75891;BME280;64571;47.512;19.054;2023-11-21T13:23:34;99915.31;;;10.78;76.26
75891;BME280;64571;47.512;19.054;2023-11-21T13:26:38;99941.56;;;10.85;76.60
75891;BME280;64571;47.512;19.054;2023-11-21T13:29:41;99935.81;;;10.82;76.79
75891;BME280;64571;47.512;19.054;2023-11-21T13:32:44;99939.00;;;10.75;77.10
75891;BME280;64571;47.512;19.054;2023-11-21T13:35:54;99933.88;;;10.69;77.36
75891;BME280;64571;47.512;19.054;2023-11-21T13:38:58;99924.41;;;10.56;77.32
75891;BME280;64571;47.512;19.054;2023-11-21T13:42:02;99929.12;;;10.55;77.38
75891;BME280;64571;47.512;19.054;2023-11-21T13:45:05;99948.06;;;10.67;77.47
75891;BME280;64571;47.512;19.054;2023-11-21T13:48:09;99929.47;;;10.54;77.26
75891;BME280;64571;47.512;19.054;2023-11-21T13:51:22;99942.31;;;10.63;77.08
75891;BME280;64571;47.512;19.054;2023-11-21T13:54:33;99927.19;;;10.56;77.09
75891;BME280;64571;47.512;19.054;2023-11-21T13:57:36;99942.59;;;10.62;76.96
75891;BME280;64571;47.512;19.054;2023-11-21T14:00:38;99935.03;;;10.54;76.96
75891;BME280;64571;47.512;19.054;2023-11-21T14:03:46;99943.44;;;10.62;77.17
75891;BME280;64571;47.512;19.054;2023-11-21T14:06:54;99932.84;;;10.51;77.52
75891;BME280;64571;47.512;19.054;2023-11-21T14:09:58;99951.88;;;10.57;77.38
75891;BME280;64571;47.512;19.054;2023-11-21T14:13:00;99943.53;;;10.44;77.39
75891;BME280;64571;47.512;19.054;2023-11-21T14:16:03;99944.78;;;10.37;77.18
75891;BME280;64571;47.512;19.054;2023-11-21T14:19:09;99959.69;;;10.42;77.00
75891;BME280;64571;47.512;19.054;2023-11-21T14:22:20;99965.38;;;10.36;77.25
75891;BME280;64571;47.512;19.054;2023-11-21T14:25:23;99958.06;;;10.27;77.19
75891;BME280;64571;47.512;19.054;2023-11-21T14:28:27;99968.38;;;10.21;77.51
75891;BME280;64571;47.512;19.054;2023-11-21T14:31:29;99970.44;;;10.15;77.66
75891;BME280;64571;47.512;19.054;2023-11-21T14:34:34;99980.28;;;10.08;77.77
75891;BME280;64571;47.512;19.054;2023-11-21T14:37:36;99977.31;;;10.04;77.57
75891;BME280;64571;47.512;19.054;2023-11-21T14:40:39;99980.91;;;10.05;77.89
75891;BME280;64571;47.512;19.054;2023-11-21T14:43:43;99972.47;;;9.96;77.69
75891;BME280;64571;47.512;19.054;2023-11-21T14:46:48;99966.88;;;9.82;78.20
75891;BME280;64571;47.512;19.054;2023-11-21T14:49:53;99981.47;;;9.88;78.13
75891;BME280;64571;47.512;19.054;2023-11-21T14:52:56;99958.09;;;9.75;78.19
75891;BME280;64571;47.512;19.054;2023-11-21T14:56:02;99982.72;;;9.82;78.33
75891;BME280;64571;47.512;19.054;2023-11-21T14:59:06;99963.22;;;9.68;78.55
75891;BME280;64571;47.512;19.054;2023-11-21T15:02:14;99984.22;;;9.74;78.54
75891;BME280;64571;47.512;19.054;2023-11-21T15:05:18;99966.97;;;9.58;78.87
75891;BME280;64571;47.512;19.054;2023-11-21T15:08:22;99991.50;;;9.70;79.22
75891;BME280;64571;47.512;19.054;2023-11-21T15:11:35;99991.50;;;9.70;79.30
75891;BME280;64571;47.512;19.054;2023-11-21T15:14:46;99994.59;;;9.69;79.20
75891;BME280;64571;47.512;19.054;2023-11-21T15:17:51;99983.34;;;9.60;79.15
75891;BME280;64571;47.512;19.054;2023-11-21T15:20:53;99969.41;;;9.46;79.66
75891;BME280;64571;47.512;19.054;2023-11-21T15:23:57;99975.03;;;9.41;79.77
75891;BME280;64571;47.512;19.054;2023-11-21T15:26:59;99993.47;;;9.51;80.10
75891;BME280;64571;47.512;19.054;2023-11-21T15:30:02;99994.06;;;9.48;80.06
75891;BME280;64571;47.512;19.054;2023-11-21T15:33:05;99979.81;;;9.35;80.13
75891;BME280;64571;47.512;19.054;2023-11-21T15:36:10;99969.34;;;9.32;80.38
75891;BME280;64571;47.512;19.054;2023-11-21T15:39:12;99971.06;;;9.28;80.34
75891;BME280;64571;47.512;19.054;2023-11-21T15:42:15;99970.53;;;9.26;80.50
75891;BME280;64571;47.512;19.054;2023-11-21T15:45:18;99988.69;;;9.37;80.84
75891;BME280;64571;47.512;19.054;2023-11-21T15:48:23;99996.78;;;9.34;81.02
75891;BME280;64571;47.512;19.054;2023-11-21T15:51:25;99992.87;;;9.35;81.20
75891;BME280;64571;47.512;19.054;2023-11-21T15:54:28;99970.91;;;9.20;81.27
75891;BME280;64571;47.512;19.054;2023-11-21T15:57:32;99964.56;;;9.19;81.49
75891;BME280;64571;47.512;19.054;2023-11-21T16:00:35;99971.28;;;9.13;81.79
75891;BME280;64571;47.512;19.054;2023-11-21T16:03:39;99973.53;;;9.11;81.87
75891;BME280;64571;47.512;19.054;2023-11-21T16:06:43;99990.09;;;9.16;82.12
75891;BME280;64571;47.512;19.054;2023-11-21T16:09:45;99963.78;;;8.95;82.52